»·PEaware :: N6182G KBUR-KBFL

N6182G :: KBUR-KBFL

FLIGHT INFORMATION

Flight Status: Arrived
Operator: Privately registered:
United States
More flights under this callsign
Pilot: Patrick D. (5207)
Aircraft: CESSNA 182 SKYLANE
(C182)
More flights by this aircraft type
Origin: KBUR Bob Hope-Burbank
United States
Destination: KBFL Meadows
United States
More flights between these airports :: More routes between these airports
Route: +VNY3 TWINE V23 GMN V23 LAMPE
File this flight plan on PilotEdge
Remarks:
Altitude:
(Current/Filed)
9,500ft
Speed:
(Current/Filed)
120kts
Departed: 06-Oct-17 03:12 PM
Arrived: 06-Oct-17 04:06 PM
Distance/Time
Traveled:
81nm/0:54
Distance/Time
To Go:
Arrived

Flight Plot

Page will automatically refresh every two minutes.

Flight plan parsing failed; only flown route is shown


Map Options




Map Legend


Flown Route
Filed Route
Departure Airport
Arrival Airport
Navaid (VOR, NDB)
Fix

Horizontal Profiles

Position Reports

Time Latitude Longitude Heading Altitude Ground
Speed
06-Oct-17 14:47 34.195753 -118.365668 180 781ft 0kts
06-Oct-17 14:48 34.195753 -118.365668 180 781ft 0kts
06-Oct-17 14:49 34.195753 -118.365668 180 781ft 0kts
06-Oct-17 14:50 34.195753 -118.365668 180 781ft 0kts
06-Oct-17 14:51 34.195753 -118.365668 180 781ft 0kts
06-Oct-17 14:52 34.195753 -118.365668 180 781ft 0kts
06-Oct-17 14:53 34.195753 -118.365668 180 781ft 0kts
06-Oct-17 14:54 34.195753 -118.365668 180 781ft 0kts
06-Oct-17 14:55 34.195749 -118.365668 180 781ft 0kts
06-Oct-17 14:56 34.195746 -118.365668 180 781ft 0kts
06-Oct-17 14:57 34.195743 -118.365668 180 781ft 0kts
06-Oct-17 14:58 34.195739 -118.365668 180 781ft 0kts
06-Oct-17 14:59 34.195736 -118.365668 180 781ft 0kts
06-Oct-17 15:00 34.195733 -118.365668 180 781ft 0kts
06-Oct-17 15:01 34.195730 -118.365668 180 781ft 0kts
06-Oct-17 15:02 34.195726 -118.365668 180 781ft 0kts
06-Oct-17 15:03 34.195723 -118.365668 180 781ft 0kts
06-Oct-17 15:04 34.195719 -118.365669 180 781ft 0kts
06-Oct-17 15:05 34.195716 -118.365669 180 781ft 0kts
06-Oct-17 15:06 34.195712 -118.365669 180 781ft 0kts
06-Oct-17 15:07 34.195709 -118.365669 180 781ft 0kts
06-Oct-17 15:08 34.195705 -118.365669 180 781ft 0kts
06-Oct-17 15:09 34.195702 -118.365669 180 781ft 0kts
06-Oct-17 15:10 34.195699 -118.365669 180 781ft 0kts
06-Oct-17 15:11 34.195798 -118.365578 353 781ft 0kts
06-Oct-17 15:12 34.195804 -118.365578 353 781ft 0kts
06-Oct-17 15:13 34.195807 -118.365579 353 781ft 0kts
06-Oct-17 15:14 34.196592 -118.366257 319 781ft 7kts
06-Oct-17 15:15 34.197006 -118.368954 353 781ft 1kts
06-Oct-17 15:16 34.197757 -118.358363 97 901ft 97kts
06-Oct-17 15:17 34.186613 -118.349566 248 2210ft 101kts
06-Oct-17 15:18 34.173184 -118.378042 232 3488ft 86kts
06-Oct-17 15:19 34.157593 -118.398180 234 4625ft 91kts
06-Oct-17 15:20 34.140199 -118.422580 230 5660ft 96kts
06-Oct-17 15:21 34.123319 -118.446533 232 6707ft 91kts
06-Oct-17 15:22 34.107319 -118.469359 231 7674ft 83kts
06-Oct-17 15:23 34.098368 -118.491756 307 8393ft 77kts
06-Oct-17 15:24 34.122276 -118.495684 355 8882ft 110kts
06-Oct-17 15:25 34.155977 -118.496410 352 9192ft 123kts
06-Oct-17 15:26 34.189152 -118.503566 345 9491ft 120kts
06-Oct-17 15:27 34.217324 -118.525722 328 9786ft 121kts
06-Oct-17 15:28 34.247658 -118.542765 344 9970ft 124kts
06-Oct-17 15:29 34.282427 -118.550360 349 9977ft 130kts
06-Oct-17 15:30 34.318177 -118.560808 350 9990ft 133kts
06-Oct-17 15:31 34.354470 -118.571372 350 9995ft 137kts
06-Oct-17 15:32 34.389924 -118.585777 339 10000ft 129kts
06-Oct-17 15:33 34.423780 -118.603745 329 9995ft 139kts
06-Oct-17 15:34 34.455837 -118.628543 321 10004ft 132kts
06-Oct-17 15:35 34.480652 -118.658374 310 10003ft 122kts
06-Oct-17 15:36 34.502543 -118.689722 315 10003ft 121kts
06-Oct-17 15:37 34.527424 -118.717102 337 10002ft 121kts
06-Oct-17 15:38 34.560428 -118.725879 351 10006ft 122kts
06-Oct-17 15:39 34.594321 -118.730458 351 9967ft 124kts
06-Oct-17 15:40 34.629628 -118.735011 339 9898ft 121kts
06-Oct-17 15:41 34.659685 -118.753643 317 9888ft 123kts
06-Oct-17 15:42 34.683583 -118.783264 307 9889ft 124kts
06-Oct-17 15:43 34.708037 -118.815878 310 9849ft 141kts
06-Oct-17 15:44 34.734089 -118.847891 306 9878ft 133kts
06-Oct-17 15:45 34.764374 -118.872726 357 9890ft 148kts
06-Oct-17 15:46 34.805678 -118.869335 358 9900ft 149kts
06-Oct-17 15:47 34.845124 -118.868466 328 9924ft 140kts
06-Oct-17 15:48 34.882188 -118.884676 339 9924ft 143kts
06-Oct-17 15:49 34.920564 -118.896158 339 9927ft 141kts
06-Oct-17 15:50 34.958698 -118.907623 339 9931ft 137kts
06-Oct-17 15:51 34.993960 -118.918402 340 9733ft 131kts
06-Oct-17 15:52 35.025512 -118.928128 340 9107ft 145kts
06-Oct-17 15:53 35.065299 -118.940199 349 8322ft 148kts
06-Oct-17 15:54 35.104890 -118.930239 8 7507ft 137kts
06-Oct-17 15:55 35.147854 -118.919361 8 6548ft 134kts
06-Oct-17 15:56 35.177783 -118.914458 359 5881ft 126kts
06-Oct-17 15:57 35.212217 -118.904394 13 5079ft 128kts
06-Oct-17 15:58 35.245605 -118.892390 13 4582ft 112kts
06-Oct-17 15:59 35.273263 -118.881882 13 4593ft 99kts
06-Oct-17 16:00 35.296945 -118.895805 296 4226ft 111kts
06-Oct-17 16:01 35.314556 -118.918963 312 3747ft 108kts
06-Oct-17 16:02 35.331979 -118.940925 311 3175ft 76kts
06-Oct-17 16:03 35.346706 -118.960340 312 2572ft 78kts
06-Oct-17 16:04 35.361204 -118.974970 316 2339ft 64kts
06-Oct-17 16:05 35.375225 -118.989763 318 2162ft 71kts
06-Oct-17 16:06 35.390367 -119.004794 320 2025ft 68kts
06-Oct-17 16:07 35.403177 -119.018861 312 1675ft 60kts
06-Oct-17 16:08 35.414996 -119.034042 319 1089ft 63kts
06-Oct-17 16:09 35.427607 -119.048659 315 688ft 58kts
06-Oct-17 16:10 35.435385 -119.058176 318 510ft 13kts
06-Oct-17 16:11 35.436199 -119.057966 53 510ft 0kts
06-Oct-17 16:12 35.436372 -119.056676 132 510ft 13kts
06-Oct-17 16:13 35.433339 -119.053073 131 510ft 24kts
06-Oct-17 16:14 35.429566 -119.048595 135 510ft 13kts
06-Oct-17 16:15 35.429708 -119.046286 100 510ft 8kts
06-Oct-17 16:16 35.429928 -119.045761 42 510ft 0kts
06-Oct-17 16:17 35.429928 -119.045761 42 510ft 0kts
06-Oct-17 16:18 35.429928 -119.045761 42 510ft 0kts
06-Oct-17 16:19 35.429928 -119.045761 42 510ft 0kts
06-Oct-17 16:20 35.429928 -119.045761 42 510ft 0kts

Navigation Log

Ident Type
Flight plan parsing failed, navigation log unavailable